createdAt,value
2022-12-31T00:01:07.240Z,7.32
2022-12-31T00:03:35.086Z,7.26
2022-12-31T00:06:13.169Z,7.25
2022-12-31T00:08:40.727Z,7.23
2022-12-31T00:11:08.103Z,7.26
2022-12-31T00:13:37.274Z,7.29
2022-12-31T00:16:15.422Z,7.26
2022-12-31T00:18:49.115Z,7.26
2022-12-31T00:21:17.764Z,7.49
2022-12-31T00:23:45.653Z,7.69
2022-12-31T00:26:21.273Z,7.86
2022-12-31T00:28:49.026Z,7.91
2022-12-31T00:31:29.732Z,8.08
2022-12-31T00:33:58.819Z,8.14
2022-12-31T00:36:38.702Z,8.11
2022-12-31T00:39:08.708Z,8.09
2022-12-31T00:41:36.738Z,7.98
2022-12-31T00:44:04.471Z,7.97
2022-12-31T00:46:32.009Z,8.07
2022-12-31T00:48:59.544Z,8.16
2022-12-31T00:51:27.830Z,8.22
2022-12-31T00:53:58.702Z,8.34
2022-12-31T00:56:30.394Z,8.43
2022-12-31T00:58:59.498Z,8.45
2022-12-31T01:01:31.458Z,8.42
2022-12-31T01:04:06.551Z,8.39
2022-12-31T01:06:34.739Z,8.29
2022-12-31T01:09:02.650Z,8.22
2022-12-31T01:11:30.665Z,8.14
2022-12-31T01:14:11.553Z,8.05
2022-12-31T01:16:52.480Z,7.93
2022-12-31T01:19:28.632Z,7.70
2022-12-31T01:21:57.099Z,7.52
2022-12-31T01:24:24.852Z,7.57
2022-12-31T01:26:52.244Z,7.65
2022-12-31T01:29:19.759Z,7.70
2022-12-31T01:31:47.217Z,7.76
2022-12-31T01:34:14.672Z,7.87
2022-12-31T01:36:42.092Z,7.95
2022-12-31T01:39:11.507Z,8.04
2022-12-31T01:41:44.122Z,8.16
2022-12-31T01:44:11.531Z,8.31
2022-12-31T01:46:52.146Z,8.36
2022-12-31T01:50:03.141Z,8.34
2022-12-31T01:52:45.137Z,8.36
2022-12-31T01:55:21.443Z,8.34
2022-12-31T01:57:56.346Z,8.36
2022-12-31T02:00:23.887Z,8.29
2022-12-31T02:02:51.887Z,8.26
2022-12-31T02:05:27.110Z,8.07
2022-12-31T02:07:55.068Z,7.88
2022-12-31T02:10:22.472Z,7.81
2022-12-31T02:12:50.608Z,7.77
2022-12-31T02:15:24.860Z,7.91
2022-12-31T02:18:29.619Z,7.99
2022-12-31T02:21:18.255Z,8.12
2022-12-31T02:23:57.791Z,8.22
2022-12-31T02:26:49.735Z,8.26
2022-12-31T02:29:58.051Z,8.25
2022-12-31T02:32:38.055Z,8.26
2022-12-31T02:35:16.317Z,8.21
2022-12-31T02:37:49.771Z,8.16
2022-12-31T02:40:21.222Z,8.05
2022-12-31T02:42:54.906Z,7.91
2022-12-31T02:45:32.344Z,7.94
2022-12-31T02:47:59.663Z,7.97
2022-12-31T02:50:34.466Z,8.02
2022-12-31T02:53:20.489Z,7.98
2022-12-31T02:56:02.942Z,7.87
2022-12-31T02:59:17.850Z,7.70
2022-12-31T03:02:11.864Z,7.59
2022-12-31T03:04:43.395Z,7.57
2022-12-31T03:07:17.714Z,7.59
2022-12-31T03:09:45.202Z,7.70
2022-12-31T03:12:32.253Z,7.71
2022-12-31T03:15:00.209Z,7.78
2022-12-31T03:17:27.657Z,7.83
2022-12-31T03:20:13.919Z,7.87
2022-12-31T03:22:43.705Z,7.91
2022-12-31T03:25:33.719Z,7.88
2022-12-31T03:28:12.049Z,7.73
2022-12-31T03:30:41.961Z,7.63
2022-12-31T03:33:10.144Z,7.55
2022-12-31T03:35:40.196Z,7.52
2022-12-31T03:38:08.380Z,7.65
2022-12-31T03:40:48.813Z,7.77
2022-12-31T03:43:17.056Z,7.90
2022-12-31T03:45:44.889Z,8.01
2022-12-31T03:48:13.349Z,8.12
2022-12-31T03:50:40.620Z,8.14
2022-12-31T03:53:08.069Z,8.14
2022-12-31T03:55:38.460Z,8.08
2022-12-31T03:58:06.312Z,7.97
2022-12-31T04:00:36.811Z,7.83
2022-12-31T04:03:04.254Z,7.80
2022-12-31T04:05:32.402Z,7.83
2022-12-31T04:07:59.876Z,7.78
2022-12-31T04:10:27.367Z,7.84
2022-12-31T04:12:54.923Z,7.91
2022-12-31T04:15:22.327Z,7.90
2022-12-31T04:17:49.773Z,7.73
2022-12-31T04:20:17.376Z,7.84
2022-12-31T04:22:44.871Z,7.65
2022-12-31T04:25:13.018Z,7.26
2022-12-31T04:27:45.402Z,7.30
2022-12-31T04:30:14.189Z,6.84
2022-12-31T04:32:42.515Z,6.53
2022-12-31T04:35:11.626Z,6.26
2022-12-31T04:37:39.497Z,6.01
2022-12-31T04:40:08.877Z,5.79
2022-12-31T04:42:36.856Z,5.68
2022-12-31T04:45:05.744Z,5.79
2022-12-31T04:47:33.252Z,6.15
2022-12-31T04:50:00.700Z,6.56
2022-12-31T04:52:28.112Z,6.92
2022-12-31T04:54:55.543Z,6.80
2022-12-31T04:57:22.995Z,6.78
2022-12-31T04:59:50.360Z,7.04
2022-12-31T05:02:17.934Z,7.18
2022-12-31T05:04:45.512Z,7.28
2022-12-31T05:07:12.997Z,7.33
2022-12-31T05:09:40.479Z,7.36
2022-12-31T05:12:08.011Z,7.35
2022-12-31T05:14:35.407Z,7.38
2022-12-31T05:17:02.864Z,7.46
2022-12-31T05:19:30.258Z,7.52
2022-12-31T05:22:16.480Z,7.57
2022-12-31T05:24:43.838Z,7.55
2022-12-31T05:27:11.478Z,7.56
2022-12-31T05:29:38.799Z,7.50
2022-12-31T05:32:06.165Z,7.43
2022-12-31T05:34:33.610Z,7.46
2022-12-31T05:37:01.024Z,7.46
2022-12-31T05:39:28.648Z,7.39
2022-12-31T05:41:56.262Z,7.40
2022-12-31T05:44:23.655Z,7.32
2022-12-31T05:46:51.045Z,7.28
2022-12-31T05:49:18.455Z,7.29
2022-12-31T05:51:46.099Z,7.32
2022-12-31T05:54:13.458Z,7.45
2022-12-31T05:56:40.939Z,7.47
2022-12-31T05:59:08.351Z,7.50
2022-12-31T06:01:35.817Z,7.55
2022-12-31T06:04:03.324Z,7.60
2022-12-31T06:06:30.808Z,7.67
2022-12-31T06:08:58.188Z,7.80
2022-12-31T06:11:25.569Z,7.81
2022-12-31T06:13:52.976Z,7.86
2022-12-31T06:16:20.372Z,7.90
2022-12-31T06:18:50.266Z,7.90
2022-12-31T06:21:19.765Z,7.87
2022-12-31T06:23:48.376Z,7.91
2022-12-31T06:26:16.539Z,8.08
2022-12-31T06:28:44.033Z,8.31
2022-12-31T06:31:14.474Z,8.63
2022-12-31T06:33:42.223Z,9.25
2022-12-31T06:36:13.901Z,10.13
2022-12-31T06:38:43.832Z,10.95
2022-12-31T06:41:14.780Z,11.74
2022-12-31T06:43:43.336Z,12.23
2022-12-31T06:46:15.516Z,12.47
2022-12-31T06:48:44.982Z,12.80
2022-12-31T06:51:19.203Z,13.33
2022-12-31T06:53:51.686Z,12.87
2022-12-31T06:56:34.009Z,13.20
2022-12-31T06:59:04.030Z,14.50
2022-12-31T07:01:50.430Z,14.87
2022-12-31T07:04:33.189Z,15.58
2022-12-31T07:07:38.436Z,16.16
2022-12-31T07:10:30.255Z,16.89
2022-12-31T07:13:23.857Z,17.34
2022-12-31T07:16:24.868Z,18.26
2022-12-31T07:19:12.934Z,18.13
2022-12-31T07:21:43.308Z,16.93
2022-12-31T07:24:12.373Z,16.18
2022-12-31T07:27:25.550Z,16.59
2022-12-31T07:30:29.536Z,17.34
2022-12-31T07:33:33.485Z,17.86
2022-12-31T07:36:12.847Z,17.55
2022-12-31T07:38:46.905Z,16.86
2022-12-31T07:41:39.608Z,16.69
2022-12-31T07:44:36.422Z,16.86
2022-12-31T07:47:11.788Z,18.56
2022-12-31T07:49:44.172Z,20.21
2022-12-31T07:52:12.178Z,20.90
2022-12-31T07:54:39.643Z,20.49
2022-12-31T07:57:07.156Z,20.70
2022-12-31T07:59:46.409Z,21.68
2022-12-31T08:02:54.148Z,22.78
2022-12-31T08:05:24.394Z,21.85
2022-12-31T08:08:25.767Z,21.28
2022-12-31T08:11:29.163Z,21.75
2022-12-31T08:14:02.058Z,21.35
2022-12-31T08:16:30.364Z,23.18
2022-12-31T08:18:58.174Z,25.82
2022-12-31T08:21:55.069Z,25.59
2022-12-31T08:24:39.361Z,22.27
2022-12-31T08:27:17.541Z,20.62
2022-12-31T08:29:47.840Z,19.37
2022-12-31T08:32:38.020Z,18.40
2022-12-31T08:35:28.257Z,17.78
2022-12-31T08:38:52.931Z,17.84
2022-12-31T08:43:32.360Z,18.23
2022-12-31T08:46:00.973Z,19.80
2022-12-31T08:48:41.811Z,20.68
2022-12-31T08:51:20.227Z,20.17
2022-12-31T08:53:48.485Z,20.41
2022-12-31T08:56:29.045Z,19.90
2022-12-31T08:59:24.106Z,19.95
2022-12-31T09:02:04.109Z,19.66
2022-12-31T09:05:19.599Z,19.55
2022-12-31T09:08:16.717Z,18.50
2022-12-31T09:11:00.652Z,18.02
2022-12-31T09:13:44.958Z,17.67
2022-12-31T09:16:36.953Z,17.92
2022-12-31T09:19:04.648Z,18.19
2022-12-31T09:21:32.505Z,18.43
2022-12-31T09:24:05.856Z,18.34
2022-12-31T09:26:49.654Z,18.51
2022-12-31T09:29:43.349Z,18.29
2022-12-31T09:32:38.031Z,18.23
2022-12-31T09:35:36.064Z,19.02
2022-12-31T09:38:15.051Z,19.46
2022-12-31T09:41:10.469Z,19.16
2022-12-31T09:44:05.291Z,20.15
2022-12-31T09:47:03.256Z,20.87
2022-12-31T09:50:08.136Z,20.63
2022-12-31T09:53:08.996Z,20.21
2022-12-31T09:56:03.087Z,23.36
2022-12-31T09:59:05.967Z,23.63
2022-12-31T10:01:59.460Z,24.94
2022-12-31T10:04:52.350Z,26.12
2022-12-31T10:07:50.430Z,27.65
2022-12-31T10:10:33.025Z,25.67
2022-12-31T11:38:53.184Z,20.59
2022-12-31T11:42:03.723Z,20.55
2022-12-31T11:44:57.366Z,20.00
2022-12-31T12:38:30.848Z,18.51
2022-12-31T12:41:07.428Z,18.49
2022-12-31T12:43:38.092Z,18.25
2022-12-31T12:46:18.197Z,17.88
2022-12-31T12:49:28.274Z,17.91
2022-12-31T12:52:09.923Z,17.71
2022-12-31T12:54:59.473Z,17.63
2022-12-31T12:57:43.101Z,17.54
2022-12-31T13:00:20.310Z,17.54
2022-12-31T13:03:01.502Z,17.58
2022-12-31T13:05:58.331Z,17.57
2022-12-31T13:08:53.348Z,17.57
2022-12-31T13:11:51.285Z,17.60
2022-12-31T13:14:32.581Z,17.58
2022-12-31T13:17:29.611Z,17.55
2022-12-31T13:20:06.651Z,17.54
2022-12-31T13:22:42.188Z,17.45
2022-12-31T13:25:35.319Z,17.40
2022-12-31T13:28:09.957Z,17.34
2022-12-31T13:30:44.506Z,17.28
2022-12-31T13:33:20.469Z,17.26
2022-12-31T13:35:55.473Z,17.23
2022-12-31T13:38:40.416Z,17.20
2022-12-31T13:41:19.272Z,17.12
2022-12-31T13:44:30.474Z,17.07
2022-12-31T13:47:10.160Z,17.03
2022-12-31T13:49:52.864Z,17.00
2022-12-31T13:52:36.379Z,16.95
2022-12-31T13:55:22.935Z,16.93
2022-12-31T13:58:11.337Z,16.88
2022-12-31T14:00:58.516Z,16.79
2022-12-31T14:03:33.323Z,16.69
2022-12-31T14:06:34.136Z,16.55
2022-12-31T14:09:02.238Z,16.44
2022-12-31T14:12:15.944Z,16.34
2022-12-31T14:15:01.496Z,16.27
2022-12-31T14:17:50.484Z,16.20
2022-12-31T14:20:53.047Z,16.07
2022-12-31T14:23:50.403Z,16.00
2022-12-31T14:26:37.548Z,15.89
2022-12-31T14:29:11.054Z,15.79
2022-12-31T14:31:53.547Z,15.72
2022-12-31T14:34:57.272Z,15.58
2022-12-31T14:37:52.117Z,15.42
2022-12-31T14:40:32.764Z,15.32
2022-12-31T14:43:35.409Z,15.17
2022-12-31T14:46:43.304Z,15.03
2022-12-31T14:49:35.359Z,14.90
2022-12-31T14:52:28.631Z,14.75
2022-12-31T14:55:17.049Z,14.67
2022-12-31T14:58:25.813Z,14.57
2022-12-31T15:00:53.843Z,14.45
2022-12-31T15:03:33.475Z,14.33
2022-12-31T15:06:28.648Z,14.24
2022-12-31T15:09:30.836Z,14.09
2022-12-31T15:12:24.126Z,14.09
2022-12-31T15:15:17.502Z,14.00
2022-12-31T15:17:56.524Z,13.84
2022-12-31T15:20:54.818Z,13.60
2022-12-31T15:23:38.122Z,13.38
2022-12-31T15:26:08.431Z,13.27
2022-12-31T15:28:40.043Z,13.18
2022-12-31T15:31:18.086Z,13.08
2022-12-31T15:34:06.627Z,12.92
2022-12-31T15:36:38.959Z,12.77
2022-12-31T15:39:11.156Z,12.63
2022-12-31T15:42:35.562Z,12.51
2022-12-31T15:44:55.006Z,12.46
2022-12-31T15:47:36.952Z,12.43
2022-12-31T15:50:13.208Z,12.43
2022-12-31T15:52:48.001Z,12.41
2022-12-31T15:55:41.577Z,12.25
2022-12-31T15:58:17.855Z,12.29
2022-12-31T16:01:06.791Z,12.22
2022-12-31T16:03:34.607Z,12.03
2022-12-31T16:06:10.685Z,11.82
2022-12-31T16:08:40.481Z,11.68
2022-12-31T16:11:09.866Z,11.55
2022-12-31T16:13:42.286Z,11.62
2022-12-31T16:16:26.171Z,11.48
2022-12-31T16:18:54.457Z,11.41
2022-12-31T16:21:35.402Z,11.26
2022-12-31T16:24:31.485Z,11.14
2022-12-31T16:27:07.170Z,11.02
2022-12-31T16:29:41.507Z,10.91
2022-12-31T16:32:15.568Z,10.82
2022-12-31T16:34:43.391Z,10.71
2022-12-31T16:37:28.649Z,10.59
2022-12-31T16:39:56.051Z,10.46
2022-12-31T16:42:25.281Z,10.42
2022-12-31T16:44:56.072Z,10.40
2022-12-31T16:47:40.067Z,10.35
2022-12-31T16:50:21.400Z,10.34
2022-12-31T16:53:03.034Z,10.37
2022-12-31T16:55:32.619Z,10.41
2022-12-31T16:58:28.436Z,10.48
2022-12-31T17:01:12.971Z,10.46
2022-12-31T17:03:46.759Z,10.44
2022-12-31T17:06:20.324Z,10.45
2022-12-31T17:09:04.710Z,10.51
2022-12-31T17:11:43.324Z,10.46
2022-12-31T17:14:10.748Z,10.42
2022-12-31T17:17:07.500Z,10.33
2022-12-31T17:19:47.259Z,10.21
2022-12-31T17:22:37.477Z,10.16
2022-12-31T17:25:25.344Z,10.16
2022-12-31T17:28:24.735Z,10.13
2022-12-31T17:30:52.925Z,10.11
2022-12-31T17:33:20.263Z,10.07
2022-12-31T17:35:49.407Z,9.99
2022-12-31T17:38:22.743Z,9.87
2022-12-31T17:41:06.728Z,9.73
2022-12-31T17:43:37.119Z,9.76
2022-12-31T17:46:17.067Z,9.78
2022-12-31T17:48:51.501Z,9.85
2022-12-31T17:51:19.090Z,9.93
2022-12-31T17:53:52.174Z,9.91
2022-12-31T17:56:20.676Z,9.91
2022-12-31T17:58:51.377Z,9.93
2022-12-31T18:01:23.227Z,9.91
2022-12-31T18:03:51.573Z,9.93
2022-12-31T18:06:19.609Z,9.90
2022-12-31T18:08:47.959Z,9.97
2022-12-31T18:11:22.890Z,9.99
2022-12-31T18:13:50.799Z,9.96
2022-12-31T18:16:18.283Z,9.91
2022-12-31T18:18:45.802Z,9.90
2022-12-31T18:21:34.938Z,9.87
2022-12-31T18:26:34.777Z,9.89
2022-12-31T18:29:16.748Z,9.90
2022-12-31T18:31:49.635Z,9.94
2022-12-31T18:34:18.592Z,9.99
2022-12-31T18:36:46.570Z,10.00
2022-12-31T18:39:14.230Z,10.00
2022-12-31T18:41:49.462Z,10.01
2022-12-31T18:44:18.105Z,10.04
2022-12-31T18:46:45.524Z,10.06
2022-12-31T18:49:12.911Z,10.10
2022-12-31T18:51:40.401Z,10.13
2022-12-31T18:54:12.098Z,10.17
2022-12-31T18:56:44.838Z,10.16
2022-12-31T18:59:14.632Z,10.18
2022-12-31T19:01:42.160Z,10.20
2022-12-31T19:04:27.620Z,10.16
2022-12-31T19:06:56.081Z,10.13
2022-12-31T19:12:15.271Z,10.08
2022-12-31T19:14:42.999Z,10.03
2022-12-31T19:19:36.710Z,9.91
2022-12-31T19:22:04.147Z,9.82
2022-12-31T19:24:32.177Z,9.79
2022-12-31T19:27:01.697Z,9.73
2022-12-31T19:29:29.187Z,9.66
2022-12-31T19:31:58.132Z,9.60
2022-12-31T19:34:25.664Z,9.58
2022-12-31T19:36:53.086Z,9.55
2022-12-31T19:39:21.444Z,9.53
2022-12-31T19:41:56.401Z,9.48
2022-12-31T19:44:26.983Z,9.43
2022-12-31T19:46:54.621Z,9.41
2022-12-31T19:49:22.113Z,9.45
2022-12-31T19:51:49.533Z,9.42
2022-12-31T19:54:16.900Z,9.36
2022-12-31T19:56:44.355Z,9.38
2022-12-31T19:59:11.875Z,9.31
2022-12-31T20:01:39.534Z,9.27
2022-12-31T20:04:07.135Z,9.25
2022-12-31T20:06:34.669Z,9.24
2022-12-31T20:09:03.240Z,9.21
2022-12-31T20:11:30.722Z,9.21
2022-12-31T20:13:58.295Z,9.14
2022-12-31T20:16:26.995Z,9.11
2022-12-31T20:18:54.790Z,9.08
2022-12-31T20:21:26.135Z,9.04
2022-12-31T20:23:55.366Z,8.97
2022-12-31T20:26:24.838Z,8.99
2022-12-31T20:28:52.978Z,9.00
2022-12-31T20:31:25.263Z,9.03
2022-12-31T20:33:54.543Z,9.04
2022-12-31T20:36:23.650Z,9.10
2022-12-31T20:38:51.848Z,9.14
2022-12-31T20:41:22.724Z,9.17
2022-12-31T20:43:50.559Z,9.15
2022-12-31T20:46:22.762Z,9.21
2022-12-31T20:48:53.953Z,9.17
2022-12-31T20:51:23.156Z,9.18
2022-12-31T20:53:57.488Z,9.17
2022-12-31T20:56:29.331Z,9.18
2022-12-31T20:58:57.658Z,9.17
2022-12-31T21:01:26.252Z,9.15
2022-12-31T21:04:06.931Z,9.22
2022-12-31T21:06:36.009Z,9.27
2022-12-31T21:09:06.618Z,9.31
2022-12-31T21:11:53.496Z,9.32
2022-12-31T21:14:21.180Z,9.34
2022-12-31T21:16:48.544Z,9.41
2022-12-31T21:19:16.039Z,9.38
2022-12-31T21:21:43.526Z,9.35
2022-12-31T21:24:11.085Z,9.30
2022-12-31T21:26:38.412Z,9.31
2022-12-31T21:29:05.811Z,9.28
2022-12-31T21:31:33.333Z,9.22
2022-12-31T21:34:00.736Z,9.17
2022-12-31T21:36:28.207Z,9.15
2022-12-31T21:38:55.643Z,9.11
2022-12-31T21:41:41.468Z,9.14
2022-12-31T21:44:08.935Z,9.11
2022-12-31T21:46:36.384Z,9.10
2022-12-31T21:49:04.225Z,9.05
2022-12-31T21:51:31.676Z,9.01
2022-12-31T21:53:59.027Z,9.00
2022-12-31T21:56:26.424Z,8.96
2022-12-31T21:59:29.966Z,8.96
2022-12-31T22:02:33.002Z,8.87
2022-12-31T22:05:02.344Z,8.77
2022-12-31T22:07:30.621Z,8.73
2022-12-31T22:09:58.031Z,8.70
2022-12-31T22:12:25.524Z,8.76
2022-12-31T22:15:13.908Z,8.84
2022-12-31T22:17:40.455Z,8.94
2022-12-31T22:20:26.260Z,8.94
2022-12-31T22:22:55.663Z,8.94
2022-12-31T22:25:23.046Z,8.87
2022-12-31T22:28:27.646Z,8.83
2022-12-31T22:30:38.003Z,8.80
2022-12-31T22:33:05.396Z,8.77
2022-12-31T22:35:32.792Z,8.79
2022-12-31T22:38:06.526Z,8.73
2022-12-31T22:40:37.406Z,8.62
2022-12-31T22:43:04.756Z,8.60
2022-12-31T22:45:32.100Z,8.53
2022-12-31T22:47:59.446Z,8.48
2022-12-31T22:50:26.821Z,8.43
2022-12-31T22:52:54.207Z,8.45
2022-12-31T22:55:21.611Z,8.46
2022-12-31T22:57:49.016Z,8.46
2022-12-31T23:00:16.515Z,8.55
2022-12-31T23:02:44.011Z,8.56
2022-12-31T23:05:16.241Z,8.56
2022-12-31T23:07:44.006Z,8.57
2022-12-31T23:10:30.172Z,8.53
2022-12-31T23:12:59.057Z,8.45
2022-12-31T23:15:45.186Z,8.42
2022-12-31T23:18:31.420Z,8.36
2022-12-31T23:21:17.382Z,8.34
2022-12-31T23:23:44.750Z,8.31
2022-12-31T23:26:12.173Z,8.24
2022-12-31T23:28:41.865Z,8.25
2022-12-31T23:31:09.370Z,8.26
2022-12-31T23:33:36.779Z,8.22
2022-12-31T23:36:07.061Z,8.22
2022-12-31T23:38:34.596Z,8.21
2022-12-31T23:41:15.987Z,8.20
2022-12-31T23:43:44.241Z,8.26
2022-12-31T23:46:12.584Z,8.31
2022-12-31T23:48:40.257Z,8.34
2022-12-31T23:51:07.652Z,8.42
2022-12-31T23:53:38.443Z,8.46
2022-12-31T23:56:23.277Z,8.52
2022-12-31T23:58:58.639Z,8.59
